createdAt,value
2017-11-01T00:00:05.823Z,0
2017-11-01T00:01:27.315Z,0
2017-11-01T00:02:49.151Z,0
2017-11-01T00:04:11.323Z,0
2017-11-01T00:05:33.927Z,0
2017-11-01T00:06:55.429Z,0
2017-11-01T00:08:17.951Z,0
2017-11-01T00:09:39.802Z,0
2017-11-01T00:11:02.385Z,0
2017-11-01T00:12:24.557Z,0
2017-11-01T00:13:46.717Z,0
2017-11-01T00:15:08.550Z,0
2017-11-01T00:16:30.401Z,0
2017-11-01T00:17:52.265Z,0
2017-11-01T00:19:14.752Z,0
2017-11-01T00:20:36.995Z,0
2017-11-01T00:21:58.615Z,0
2017-11-01T00:23:20.818Z,0
2017-11-01T00:24:43.536Z,0
2017-11-01T00:26:05.704Z,0
2017-11-01T00:27:27.934Z,0
2017-11-01T00:28:50.465Z,0
2017-11-01T00:30:12.644Z,0
2017-11-01T00:31:34.536Z,0
2017-11-01T00:32:56.710Z,0
2017-11-01T00:34:18.546Z,0
2017-11-01T00:35:40.435Z,0
2017-11-01T00:37:02.290Z,0
2017-11-01T00:38:24.489Z,0
2017-11-01T00:39:46.015Z,0
2017-11-01T00:41:07.532Z,0
2017-11-01T00:42:29.375Z,0
2017-11-01T00:43:51.929Z,0
2017-11-01T00:45:13.786Z,0
2017-11-01T00:46:35.758Z,0
2017-11-01T00:47:57.770Z,0
2017-11-01T00:49:19.608Z,0
2017-11-01T00:50:41.980Z,0
2017-11-01T00:52:04.147Z,0
2017-11-01T00:53:25.982Z,0
2017-11-01T00:54:47.492Z,0
2017-11-01T00:56:09.111Z,0
2017-11-01T00:57:30.966Z,0
2017-11-01T00:58:53.536Z,0
2017-11-01T01:00:15.395Z,0
2017-11-01T01:01:37.620Z,0
2017-11-01T01:03:00.303Z,0
2017-11-01T01:04:22.192Z,0
2017-11-01T01:05:44.045Z,0
2017-11-01T01:07:05.916Z,0
2017-11-01T01:08:28.075Z,0
2017-11-01T01:09:49.257Z,0
2017-11-01T01:11:11.433Z,0
2017-11-01T01:12:33.677Z,0
2017-11-01T01:13:56.153Z,0
2017-11-01T01:15:18.372Z,0
2017-11-01T01:16:40.204Z,0
2017-11-01T01:18:02.707Z,0
2017-11-01T01:19:24.926Z,0
2017-11-01T01:20:46.438Z,0
2017-11-01T01:22:08.956Z,0
2017-11-01T01:23:30.185Z,0
2017-11-01T01:24:52.082Z,0
2017-11-01T01:26:13.908Z,0
2017-11-01T01:27:35.407Z,0
2017-11-01T01:28:57.579Z,0
2017-11-01T01:30:19.154Z,0
2017-11-01T01:31:41.335Z,0
2017-11-01T01:33:03.226Z,0
2017-11-01T01:34:25.113Z,0
2017-11-01T01:35:47.515Z,0
2017-11-01T01:37:10.055Z,0
2017-11-01T01:38:31.906Z,0
2017-11-01T01:39:54.466Z,0
2017-11-01T01:41:16.347Z,0
2017-11-01T01:42:38.515Z,0
2017-11-01T01:44:00.706Z,0
2017-11-01T01:45:22.553Z,0
2017-11-01T01:46:44.709Z,0
2017-11-01T01:48:05.878Z,0
2017-11-01T01:49:27.699Z,0
2017-11-01T01:50:49.594Z,0
2017-11-01T01:52:11.416Z,0
2017-11-01T01:53:33.260Z,0
2017-11-01T01:54:54.866Z,0
2017-11-01T01:56:16.704Z,0
2017-11-01T01:57:38.975Z,0
2017-11-01T01:59:00.867Z,0
2017-11-01T02:00:22.478Z,0
2017-11-01T02:01:44.639Z,0
2017-11-01T02:03:06.453Z,0
2017-11-01T02:04:28.054Z,0
2017-11-01T02:05:49.570Z,0
2017-11-01T02:07:11.869Z,0
2017-11-01T02:08:33.696Z,0
2017-11-01T02:09:54.935Z,0
2017-11-01T02:11:17.134Z,0
2017-11-01T02:12:39.016Z,0
2017-11-01T02:14:00.895Z,0
2017-11-01T02:15:22.777Z,0
2017-11-01T02:16:44.948Z,0
2017-11-01T02:18:06.556Z,0
2017-11-01T02:19:28.075Z,0
2017-11-01T02:20:50.596Z,0
2017-11-01T02:22:12.785Z,0
2017-11-01T02:23:35.387Z,0
2017-11-01T02:24:57.846Z,0
2017-11-01T02:26:20.371Z,0
2017-11-01T02:27:42.224Z,0
2017-11-01T02:29:04.407Z,0
2017-11-01T02:30:26.254Z,0
2017-11-01T02:31:47.914Z,0
2017-11-01T02:33:10.430Z,0
2017-11-01T02:34:31.936Z,0
2017-11-01T02:35:53.898Z,0
2017-11-01T02:37:16.396Z,0
2017-11-01T02:38:38.668Z,0
2017-11-01T02:40:00.506Z,0
2017-11-01T02:41:23.319Z,0
2017-11-01T02:42:44.515Z,0
2017-11-01T02:44:06.719Z,0
2017-11-01T02:45:28.232Z,0
2017-11-01T02:46:50.746Z,0
2017-11-01T02:48:12.596Z,0
2017-11-01T02:49:34.782Z,0
2017-11-01T02:50:56.685Z,0
2017-11-01T02:52:19.227Z,0
2017-11-01T02:53:41.464Z,0
2017-11-01T02:55:03.669Z,0
2017-11-01T02:56:25.544Z,0
2017-11-01T02:57:47.054Z,0
2017-11-01T02:59:08.655Z,0
2017-11-01T03:00:30.852Z,0
2017-11-01T03:01:53.046Z,0
2017-11-01T03:03:15.228Z,0
2017-11-01T03:04:37.445Z,0
2017-11-01T03:05:59.620Z,0
2017-11-01T03:07:21.497Z,0
2017-11-01T03:08:43.443Z,0
2017-11-01T03:10:04.969Z,0
2017-11-01T03:11:26.810Z,0
2017-11-01T03:12:48.300Z,0
2017-11-01T03:14:10.176Z,0
2017-11-01T03:15:32.161Z,0
2017-11-01T03:16:54.039Z,0
2017-11-01T03:18:16.238Z,0
2017-11-01T03:19:38.495Z,0
2017-11-01T03:21:00.661Z,0
2017-11-01T03:22:22.845Z,0
2017-11-01T03:23:44.353Z,0
2017-11-01T03:25:06.204Z,0
2017-11-01T03:26:28.463Z,0
2017-11-01T03:27:50.629Z,0
2017-11-01T03:29:12.141Z,0
2017-11-01T03:30:34.561Z,0
2017-11-01T03:31:56.440Z,0
2017-11-01T03:33:18.301Z,0
2017-11-01T03:34:39.924Z,0
2017-11-01T03:36:02.101Z,0
2017-11-01T03:37:23.945Z,0
2017-11-01T03:38:46.229Z,0
2017-11-01T03:40:07.744Z,0
2017-11-01T03:41:30.195Z,0
2017-11-01T03:42:52.044Z,0
2017-11-01T03:44:13.948Z,0
2017-11-01T03:45:35.473Z,0
2017-11-01T03:46:57.986Z,0
2017-11-01T03:48:19.489Z,0
2017-11-01T03:49:41.349Z,0
2017-11-01T03:51:03.555Z,0
2017-11-01T03:52:25.720Z,0
2017-11-01T03:53:47.605Z,0
2017-11-01T03:55:09.472Z,0
2017-11-01T03:56:31.764Z,0
2017-11-01T03:57:54.252Z,0
2017-11-01T03:59:16.104Z,0
2017-11-01T04:00:38.290Z,0
2017-11-01T04:02:00.456Z,0
2017-11-01T04:03:22.303Z,0
2017-11-01T04:04:44.827Z,0
2017-11-01T04:06:06.676Z,0
2017-11-01T04:07:28.854Z,0
2017-11-01T04:08:51.854Z,0
2017-11-01T04:10:14.061Z,0
2017-11-01T04:11:35.612Z,0
2017-11-01T04:12:57.782Z,0
2017-11-01T04:14:19.688Z,0
2017-11-01T04:15:41.564Z,0
2017-11-01T04:17:03.744Z,0
2017-11-01T04:18:25.264Z,0
2017-11-01T04:19:47.365Z,0
2017-11-01T04:21:09.687Z,0
2017-11-01T04:22:31.519Z,0
2017-11-01T04:23:53.040Z,0
2017-11-01T04:25:14.512Z,0
2017-11-01T04:26:36.364Z,0
2017-11-01T04:27:57.883Z,0
2017-11-01T04:29:20.387Z,0
2017-11-01T04:30:42.645Z,0
2017-11-01T04:32:04.503Z,0
2017-11-01T04:33:26.051Z,0
2017-11-01T04:34:47.894Z,0
2017-11-01T04:36:09.432Z,0
2017-11-01T04:37:31.278Z,0
2017-11-01T04:38:53.472Z,0
2017-11-01T04:40:15.056Z,0
2017-11-01T04:41:37.577Z,0
2017-11-01T04:42:59.504Z,0
2017-11-01T04:44:21.759Z,0
2017-11-01T04:45:43.916Z,0
2017-11-01T04:47:06.086Z,0
2017-11-01T04:48:28.258Z,0
2017-11-01T04:49:50.123Z,0
2017-11-01T04:51:11.976Z,0
2017-11-01T04:52:33.824Z,0
2017-11-01T04:53:56.087Z,0
2017-11-01T04:55:17.939Z,0
2017-11-01T04:56:39.466Z,0
2017-11-01T04:58:01.693Z,0
2017-11-01T04:59:23.864Z,0
2017-11-01T05:00:45.703Z,0
2017-11-01T05:02:07.560Z,0
2017-11-01T05:03:29.064Z,0
2017-11-01T05:04:51.245Z,0
2017-11-01T05:06:13.421Z,0
2017-11-01T05:07:35.614Z,0
2017-11-01T05:08:58.173Z,0
2017-11-01T05:10:20.340Z,0
2017-11-01T05:11:42.868Z,0
2017-11-01T05:13:04.711Z,0
2017-11-01T05:14:26.564Z,0
2017-11-01T05:15:49.196Z,0
2017-11-01T05:17:11.049Z,0
2017-11-01T05:18:33.204Z,0
2017-11-01T05:19:55.049Z,0
2017-11-01T05:21:16.885Z,0
2017-11-01T05:22:38.394Z,0
2017-11-01T05:24:00.905Z,0
2017-11-01T05:25:22.434Z,0
2017-11-01T05:26:44.661Z,0
2017-11-01T05:28:06.569Z,0
2017-11-01T05:29:28.743Z,0
2017-11-01T05:30:51.224Z,0
2017-11-01T05:32:13.728Z,0
2017-11-01T05:33:35.952Z,0
2017-11-01T05:34:57.784Z,0
2017-11-01T05:36:19.998Z,0
2017-11-01T05:37:41.584Z,0
2017-11-01T05:39:03.744Z,0
2017-11-01T05:40:25.604Z,0
2017-11-01T05:41:47.608Z,0
2017-11-01T05:43:09.765Z,0
2017-11-01T05:44:31.954Z,0
2017-11-01T05:45:54.666Z,0
2017-11-01T05:47:16.546Z,0
2017-11-01T05:48:38.783Z,0
2017-11-01T05:50:00.678Z,0
2017-11-01T05:51:22.875Z,0
2017-11-01T05:52:45.052Z,0
2017-11-01T05:54:07.573Z,0
2017-11-01T05:55:29.755Z,0
2017-11-01T05:56:51.622Z,0
2017-11-01T05:58:13.793Z,0
2017-11-01T05:59:35.306Z,0
2017-11-01T06:00:57.166Z,0
2017-11-01T06:02:19.360Z,0
2017-11-01T06:03:42.317Z,0
2017-11-01T06:05:04.494Z,0
2017-11-01T06:06:26.403Z,0
2017-11-01T06:07:48.576Z,0
2017-11-01T06:09:11.084Z,0
2017-11-01T06:10:33.302Z,0
2017-11-01T06:11:55.473Z,0
2017-11-01T06:13:17.374Z,0
2017-11-01T06:14:39.629Z,0
2017-11-01T06:16:02.151Z,0
2017-11-01T06:17:24.313Z,0
2017-11-01T06:18:46.493Z,0
2017-11-01T06:20:08.347Z,0
2017-11-01T06:21:29.522Z,0
2017-11-01T06:22:51.504Z,0
2017-11-01T06:24:13.943Z,0
2017-11-01T06:25:35.799Z,0
2017-11-01T06:26:58.052Z,0
2017-11-01T06:28:20.237Z,0
2017-11-01T06:29:42.103Z,0
2017-11-01T06:31:04.003Z,0
2017-11-01T06:32:26.203Z,0
2017-11-01T06:33:48.069Z,0
2017-11-01T06:35:09.618Z,0
2017-11-01T06:36:31.701Z,0
2017-11-01T06:37:54.218Z,5
2017-11-01T06:39:16.403Z,5
2017-11-01T06:40:38.248Z,5
2017-11-01T06:42:00.456Z,5
2017-11-01T06:43:23.123Z,5
2017-11-01T06:44:44.976Z,5
2017-11-01T06:46:07.210Z,5
2017-11-01T06:47:29.739Z,5
2017-11-01T06:48:51.252Z,5
2017-11-01T06:50:13.562Z,5
2017-11-01T06:51:36.075Z,5
2017-11-01T06:52:58.249Z,5
2017-11-01T06:54:19.780Z,5
2017-11-01T06:55:42.290Z,10
2017-11-01T06:57:04.525Z,10
2017-11-01T06:58:27.073Z,10
2017-11-01T06:59:49.073Z,10
2017-11-01T07:01:10.839Z,5
2017-11-01T07:02:33.046Z,10
2017-11-01T07:03:55.232Z,10
2017-11-01T07:05:17.473Z,10
2017-11-01T07:06:39.767Z,10
2017-11-01T07:08:01.974Z,15
2017-11-01T07:09:24.170Z,15
2017-11-01T07:10:46.493Z,15
2017-11-01T07:12:08.684Z,10
2017-11-01T07:13:30.854Z,10
2017-11-01T07:14:53.015Z,15
2017-11-01T07:16:15.183Z,15
2017-11-01T07:17:37.754Z,10
2017-11-01T07:18:59.647Z,10
2017-11-01T07:20:21.504Z,10
2017-11-01T07:21:43.383Z,10
2017-11-01T07:23:05.558Z,10
2017-11-01T07:24:27.801Z,10
2017-11-01T07:25:49.753Z,10
2017-11-01T07:27:12.294Z,15
2017-11-01T07:28:34.119Z,15
2017-11-01T07:29:55.715Z,15
2017-11-01T07:31:17.580Z,15
2017-11-01T07:32:39.758Z,20
2017-11-01T07:34:01.936Z,20
2017-11-01T07:35:24.103Z,25
2017-11-01T07:36:45.623Z,25
2017-11-01T07:38:07.823Z,20
2017-11-01T07:39:29.330Z,25
2017-11-01T07:40:50.893Z,30
2017-11-01T07:42:13.076Z,30
2017-11-01T07:43:35.278Z,30
2017-11-01T07:44:57.460Z,25
2017-11-01T07:46:19.632Z,25
2017-11-01T07:47:42.454Z,30
2017-11-01T07:49:04.651Z,30
2017-11-01T07:50:26.878Z,30
2017-11-01T07:51:48.484Z,30
2017-11-01T07:53:10.324Z,40
2017-11-01T07:54:32.553Z,40
2017-11-01T07:55:55.104Z,45
2017-11-01T07:57:16.614Z,45
2017-11-01T07:58:38.907Z,35
2017-11-01T08:00:01.405Z,25
2017-11-01T08:01:23.664Z,25
2017-11-01T08:02:46.175Z,25
2017-11-01T08:04:08.674Z,25
2017-11-01T08:05:30.844Z,30
2017-11-01T08:06:52.359Z,30
2017-11-01T08:08:14.523Z,40
2017-11-01T08:09:36.746Z,40
2017-11-01T08:10:58.927Z,35
2017-11-01T08:12:21.095Z,35
2017-11-01T08:13:43.033Z,45
2017-11-01T08:15:04.885Z,45
2017-11-01T08:16:27.141Z,50
2017-11-01T08:17:48.637Z,50
2017-11-01T08:19:10.506Z,50
2017-11-01T08:20:33.013Z,50
2017-11-01T08:21:55.243Z,45
2017-11-01T08:23:16.775Z,45
2017-11-01T08:24:38.635Z,50
2017-11-01T08:26:01.167Z,45
2017-11-01T08:27:23.673Z,45
2017-11-01T08:28:45.181Z,40
2017-11-01T08:30:07.063Z,35
2017-11-01T08:31:29.281Z,35
2017-11-01T08:32:51.463Z,40
2017-11-01T08:34:13.318Z,40
2017-11-01T08:35:35.185Z,40
2017-11-01T08:36:56.753Z,35
2017-11-01T08:38:18.940Z,30
2017-11-01T08:39:40.868Z,35
2017-11-01T08:41:02.707Z,45
2017-11-01T08:42:24.549Z,40
2017-11-01T08:43:46.419Z,45
2017-11-01T08:45:08.275Z,40
2017-11-01T08:46:30.125Z,40
2017-11-01T08:47:52.330Z,35
2017-11-01T08:49:14.253Z,35
2017-11-01T08:50:36.798Z,35
2017-11-01T08:51:59.290Z,40
2017-11-01T08:53:21.809Z,40
2017-11-01T08:54:44.083Z,45
2017-11-01T08:56:06.315Z,50
2017-11-01T08:57:27.884Z,55
2017-11-01T08:58:50.067Z,60
2017-11-01T09:00:11.962Z,65
2017-11-01T09:01:33.804Z,55
2017-11-01T09:02:55.676Z,55
2017-11-01T09:04:18.212Z,45
2017-11-01T09:05:40.805Z,45
2017-11-01T09:07:02.647Z,50
2017-11-01T09:08:24.877Z,55
2017-11-01T09:09:47.144Z,55
2017-11-01T09:11:09.065Z,60
2017-11-01T09:12:31.255Z,55
2017-11-01T09:13:53.127Z,50
2017-11-01T09:15:15.416Z,50
2017-11-01T09:16:37.270Z,40
2017-11-01T09:17:59.446Z,35
2017-11-01T09:19:22.061Z,40
2017-11-01T09:20:43.916Z,50
2017-11-01T09:22:06.124Z,45
2017-11-01T09:23:28.307Z,45
2017-11-01T09:24:49.827Z,50
2017-11-01T09:26:12.374Z,50
2017-11-01T09:27:34.599Z,40
2017-11-01T09:28:56.446Z,40
2017-11-01T09:30:17.978Z,40
2017-11-01T09:31:39.749Z,40
2017-11-01T09:33:01.694Z,45
2017-11-01T09:34:24.526Z,50
2017-11-01T09:35:48.914Z,50
2017-11-01T09:37:10.387Z,50
2017-11-01T09:38:32.586Z,55
2017-11-01T09:39:54.109Z,45
2017-11-01T09:41:16.055Z,45
2017-11-01T09:42:38.224Z,50
2017-11-01T09:44:00.086Z,50
2017-11-01T09:45:22.264Z,55
2017-11-01T09:46:44.118Z,65
2017-11-01T09:48:06.759Z,60
2017-11-01T09:49:28.945Z,60
2017-11-01T09:50:51.125Z,60
2017-11-01T09:52:14.257Z,60
2017-11-01T09:53:36.115Z,60
2017-11-01T09:54:57.959Z,65
2017-11-01T09:56:20.499Z,60
2017-11-01T09:57:42.042Z,70
2017-11-01T09:59:03.886Z,55
2017-11-01T10:00:27.877Z,75
2017-11-01T10:01:50.068Z,60
2017-11-01T10:03:12.615Z,65
2017-11-01T10:04:34.475Z,60
2017-11-01T10:05:56.663Z,60
2017-11-01T10:07:18.840Z,55
2017-11-01T10:08:41.284Z,55
2017-11-01T10:10:03.173Z,60
2017-11-01T10:11:24.683Z,60
2017-11-01T10:12:47.195Z,65
2017-11-01T10:14:10.044Z,70
2017-11-01T10:15:32.974Z,75
2017-11-01T10:16:55.591Z,70
2017-11-01T10:18:17.428Z,70
2017-11-01T10:19:39.283Z,70
2017-11-01T10:21:01.137Z,65
2017-11-01T10:22:23.704Z,75
2017-11-01T10:23:45.219Z,60
2017-11-01T10:25:06.783Z,65
2017-11-01T10:26:28.962Z,65
2017-11-01T10:27:51.177Z,75
2017-11-01T10:29:12.715Z,70
2017-11-01T10:30:35.232Z,70
2017-11-01T10:31:57.434Z,70
2017-11-01T10:33:18.944Z,75
2017-11-01T10:34:41.125Z,80
2017-11-01T10:36:03.312Z,80
2017-11-01T10:37:28.873Z,70
2017-11-01T10:38:50.777Z,65
2017-11-01T10:40:12.953Z,70
2017-11-01T10:41:35.169Z,75
2017-11-01T10:42:57.034Z,60
2017-11-01T10:44:19.540Z,60
2017-11-01T10:45:41.734Z,70
2017-11-01T10:47:04.052Z,70
2017-11-01T10:48:25.225Z,80
2017-11-01T10:49:47.084Z,75
2017-11-01T10:51:08.934Z,80
2017-11-01T10:52:30.778Z,70
2017-11-01T10:53:53.293Z,90
2017-11-01T10:55:15.935Z,80
2017-11-01T10:56:38.135Z,90
2017-11-01T10:58:00.516Z,85
2017-11-01T10:59:22.594Z,95
2017-11-01T11:00:44.446Z,90
2017-11-01T11:02:06.616Z,80
2017-11-01T11:03:29.135Z,85
2017-11-01T11:04:51.311Z,75
2017-11-01T11:06:13.154Z,100
2017-11-01T11:07:35.337Z,95
2017-11-01T11:08:57.573Z,90
2017-11-01T11:10:19.736Z,85
2017-11-01T11:11:41.280Z,80
2017-11-01T11:13:03.144Z,95
2017-11-01T11:14:25.002Z,100
2017-11-01T11:15:46.859Z,85
2017-11-01T11:17:09.033Z,70
2017-11-01T11:18:31.264Z,65
2017-11-01T11:19:53.769Z,85
2017-11-01T11:21:15.634Z,85
2017-11-01T11:22:38.158Z,95
2017-11-01T11:23:59.674Z,90
2017-11-01T11:25:21.533Z,100
2017-11-01T11:26:43.983Z,105
2017-11-01T11:28:06.590Z,90
2017-11-01T11:29:28.881Z,110
2017-11-01T11:30:50.753Z,125
2017-11-01T11:32:12.618Z,105
2017-11-01T11:33:34.125Z,120
2017-11-01T11:34:56.628Z,135
2017-11-01T11:36:18.804Z,110
2017-11-01T11:37:41.017Z,125
2017-11-01T11:39:02.894Z,120
2017-11-01T11:40:25.077Z,130
2017-11-01T11:41:46.955Z,145
2017-11-01T11:43:08.572Z,155
2017-11-01T11:44:30.099Z,150
2017-11-01T11:45:52.274Z,165
2017-11-01T11:47:14.861Z,145
2017-11-01T11:48:37.652Z,150
2017-11-01T11:50:00.187Z,175
2017-11-01T11:51:22.044Z,175
2017-11-01T11:52:44.568Z,160
2017-11-01T11:54:06.091Z,180
2017-11-01T11:55:28.614Z,210
2017-11-01T11:56:50.798Z,190
2017-11-01T11:58:12.813Z,220
2017-11-01T11:59:34.323Z,220
2017-11-01T12:00:56.538Z,265
2017-11-01T12:02:18.833Z,245
2017-11-01T12:03:41.086Z,215
2017-11-01T12:05:03.334Z,185
2017-11-01T12:06:24.846Z,165
2017-11-01T12:07:47.044Z,165
2017-11-01T12:09:09.572Z,140
2017-11-01T12:10:31.463Z,160
2017-11-01T12:11:53.663Z,160
2017-11-01T12:13:15.174Z,150
2017-11-01T12:14:37.388Z,120
2017-11-01T12:15:59.954Z,130
2017-11-01T12:17:21.867Z,130
2017-11-01T12:18:44.058Z,125
2017-11-01T12:20:05.939Z,125
2017-11-01T12:21:28.154Z,125
2017-11-01T12:22:50.778Z,135
2017-11-01T12:24:12.665Z,120
2017-11-01T12:25:34.526Z,140
2017-11-01T12:26:56.061Z,120
2017-11-01T12:28:18.264Z,115
2017-11-01T12:29:40.503Z,120
2017-11-01T12:31:03.041Z,100
2017-11-01T12:32:24.621Z,120
2017-11-01T12:33:46.465Z,125
2017-11-01T12:35:07.991Z,120
2017-11-01T12:36:29.838Z,110
2017-11-01T12:37:52.103Z,100
2017-11-01T12:39:13.950Z,115
2017-11-01T12:40:35.591Z,120
2017-11-01T12:41:57.804Z,115
2017-11-01T12:43:20.150Z,100
2017-11-01T12:44:42.043Z,115
2017-11-01T12:46:04.282Z,100
2017-11-01T12:47:26.140Z,120
2017-11-01T12:48:47.999Z,130
2017-11-01T12:50:10.535Z,130
2017-11-01T12:51:33.075Z,125
2017-11-01T12:52:55.613Z,110
2017-11-01T12:54:17.830Z,110
2017-11-01T12:55:39.363Z,110
2017-11-01T12:57:01.205Z,115
2017-11-01T12:58:23.380Z,115
2017-11-01T12:59:45.330Z,125
2017-11-01T13:01:07.517Z,125
2017-11-01T13:02:30.046Z,115
2017-11-01T13:03:52.595Z,95
2017-11-01T13:05:14.950Z,80
2017-11-01T13:06:36.803Z,70
2017-11-01T13:07:58.643Z,50
2017-11-01T13:09:20.843Z,50
2017-11-01T13:10:43.033Z,55
2017-11-01T13:12:05.333Z,50
2017-11-01T13:13:27.516Z,60
2017-11-01T13:14:49.697Z,75
2017-11-01T13:16:11.972Z,90
2017-11-01T13:17:33.498Z,95
2017-11-01T13:18:56.039Z,100
2017-11-01T13:20:18.584Z,125
2017-11-01T13:21:40.442Z,155
2017-11-01T13:23:02.008Z,165
2017-11-01T13:24:24.233Z,175
2017-11-01T13:25:46.462Z,190
2017-11-01T13:27:08.642Z,215
2017-11-01T13:28:31.012Z,190
2017-11-01T13:29:53.192Z,175
2017-11-01T13:31:15.381Z,180
2017-11-01T13:32:37.838Z,190
2017-11-01T13:33:59.694Z,175
2017-11-01T13:35:21.203Z,170
2017-11-01T13:36:42.814Z,140
2017-11-01T13:38:04.441Z,100
2017-11-01T13:39:26.633Z,90
2017-11-01T13:40:48.842Z,90
2017-11-01T13:42:11.363Z,90
2017-11-01T13:43:33.680Z,100
2017-11-01T13:44:55.206Z,105
2017-11-01T13:46:17.403Z,110
2017-11-01T13:47:39.932Z,110
2017-11-01T13:49:01.831Z,120
2017-11-01T13:50:23.713Z,115
2017-11-01T13:51:45.913Z,120
2017-11-01T13:53:08.451Z,120
2017-11-01T13:54:30.643Z,110
2017-11-01T13:55:51.553Z,100
2017-11-01T13:57:13.762Z,95
2017-11-01T13:58:35.673Z,90
2017-11-01T13:59:58.592Z,80
2017-11-01T14:01:20.160Z,65
2017-11-01T14:02:42.332Z,70
2017-11-01T14:04:04.866Z,65
2017-11-01T14:05:27.375Z,60
2017-11-01T14:06:49.562Z,55
2017-11-01T14:08:11.099Z,60
2017-11-01T14:09:33.656Z,55
2017-11-01T14:10:55.914Z,65
2017-11-01T14:12:18.440Z,80
2017-11-01T14:13:40.286Z,70
2017-11-01T14:15:02.490Z,70
2017-11-01T14:16:23.684Z,80
2017-11-01T14:17:45.542Z,85
2017-11-01T14:19:07.775Z,90
2017-11-01T14:20:29.968Z,95
2017-11-01T14:21:52.524Z,95
2017-11-01T14:23:14.382Z,85
2017-11-01T14:24:36.253Z,75
2017-11-01T14:25:58.826Z,65
2017-11-01T14:27:21.007Z,70
2017-11-01T14:28:43.534Z,70
2017-11-01T14:30:05.710Z,65
2017-11-01T14:31:27.256Z,65
2017-11-01T14:32:49.773Z,65
2017-11-01T14:34:12.305Z,65
2017-11-01T14:35:34.586Z,65
2017-11-01T14:36:57.131Z,60
2017-11-01T14:38:19.033Z,60
2017-11-01T14:39:40.963Z,60
2017-11-01T14:41:03.497Z,55
2017-11-01T14:42:25.392Z,55
2017-11-01T14:43:47.272Z,55
2017-11-01T14:45:09.151Z,55
2017-11-01T14:46:31.009Z,45
2017-11-01T14:47:53.640Z,40
2017-11-01T14:49:15.853Z,30
2017-11-01T14:50:38.043Z,30
2017-11-01T14:51:59.960Z,20
2017-11-01T14:53:21.474Z,20
2017-11-01T14:54:44.004Z,15
2017-11-01T14:56:06.234Z,15
2017-11-01T14:57:28.174Z,15
2017-11-01T14:58:50.454Z,15
2017-11-01T15:00:12.633Z,15
2017-11-01T15:01:35.170Z,15
2017-11-01T15:02:57.482Z,15
2017-11-01T15:04:19.403Z,10
2017-11-01T15:05:41.564Z,10
2017-11-01T15:07:03.777Z,5
2017-11-01T15:08:25.634Z,10
2017-11-01T15:09:48.175Z,10
2017-11-01T15:11:10.042Z,10
2017-11-01T15:12:31.905Z,10
2017-11-01T15:13:54.117Z,10
2017-11-01T15:15:16.323Z,10
2017-11-01T15:16:38.947Z,10
2017-11-01T15:18:00.597Z,5
2017-11-01T15:19:22.913Z,5
2017-11-01T15:20:45.113Z,5
2017-11-01T15:22:07.315Z,5
2017-11-01T15:23:29.554Z,5
2017-11-01T15:24:51.797Z,5
2017-11-01T15:26:14.077Z,5
2017-11-01T15:27:36.587Z,5
2017-11-01T15:28:59.112Z,5
2017-11-01T15:30:20.964Z,5
2017-11-01T15:31:43.154Z,5
2017-11-01T15:33:05.684Z,5
2017-11-01T15:34:27.874Z,5
2017-11-01T15:35:50.129Z,5
2017-11-01T15:37:12.654Z,5
2017-11-01T15:38:34.526Z,0
2017-11-01T15:39:57.047Z,0
2017-11-01T15:41:19.271Z,0
2017-11-01T15:42:41.797Z,0
2017-11-01T15:44:04.324Z,0
2017-11-01T15:45:26.495Z,0
2017-11-01T15:46:48.179Z,0
2017-11-01T15:48:10.404Z,0
2017-11-01T15:49:32.618Z,0
2017-11-01T15:50:54.825Z,0
2017-11-01T15:52:16.693Z,0
2017-11-01T15:53:38.910Z,0
2017-11-01T15:55:01.218Z,0
2017-11-01T15:56:23.807Z,0
2017-11-01T15:57:46.002Z,0
2017-11-01T15:59:08.547Z,0
2017-11-01T16:00:31.189Z,0
2017-11-01T16:01:53.705Z,0
2017-11-01T16:03:16.228Z,0
2017-11-01T16:04:38.766Z,0
2017-11-01T16:06:01.311Z,0
2017-11-01T16:07:23.520Z,0
2017-11-01T16:08:45.538Z,0
2017-11-01T16:10:08.083Z,0
2017-11-01T16:11:30.325Z,0
2017-11-01T16:12:52.535Z,0
2017-11-01T16:14:14.763Z,0
2017-11-01T16:15:37.290Z,0
2017-11-01T16:16:59.835Z,0
2017-11-01T16:18:21.683Z,0
2017-11-01T16:19:43.885Z,0
2017-11-01T16:21:06.436Z,0
2017-11-01T16:22:28.639Z,0
2017-11-01T16:23:51.180Z,0
2017-11-01T16:25:13.721Z,0
2017-11-01T16:26:35.938Z,0
2017-11-01T16:27:58.565Z,0
2017-11-01T16:29:20.766Z,0
2017-11-01T16:30:43.053Z,0
2017-11-01T16:32:05.637Z,0
2017-11-01T16:33:27.945Z,0
2017-11-01T16:34:50.145Z,0
2017-11-01T16:36:12.705Z,0
2017-11-01T16:37:34.954Z,0
2017-11-01T16:38:57.166Z,0
2017-11-01T16:40:19.582Z,0
2017-11-01T16:41:42.216Z,0
2017-11-01T16:43:03.757Z,0
2017-11-01T16:44:25.708Z,0
2017-11-01T16:45:48.255Z,0
2017-11-01T16:47:10.150Z,0
2017-11-01T16:48:32.374Z,0
2017-11-01T16:49:55.081Z,0
2017-11-01T16:51:17.657Z,0
2017-11-01T16:52:39.870Z,0
2017-11-01T16:54:02.402Z,0
2017-11-01T16:55:24.598Z,0
2017-11-01T16:56:47.155Z,0
2017-11-01T16:58:09.688Z,0
2017-11-01T16:59:31.961Z,0
2017-11-01T17:00:54.177Z,0
2017-11-01T17:02:16.712Z,0
2017-11-01T17:03:39.261Z,0
2017-11-01T17:05:01.836Z,0
2017-11-01T17:06:24.398Z,0
2017-11-01T17:07:46.756Z,0
2017-11-01T17:09:09.304Z,0
2017-11-01T17:10:31.913Z,0
2017-11-01T17:11:54.581Z,0
2017-11-01T17:13:16.487Z,0
2017-11-01T17:14:39.045Z,0
2017-11-01T17:16:01.309Z,0
2017-11-01T17:17:23.855Z,0
2017-11-01T17:18:46.137Z,0
2017-11-01T17:20:08.858Z,0
2017-11-01T17:21:31.109Z,0
2017-11-01T17:22:53.001Z,0
2017-11-01T17:24:15.605Z,0
2017-11-01T17:25:38.214Z,0
2017-11-01T17:27:00.471Z,0
2017-11-01T17:28:23.005Z,0
2017-11-01T17:29:48.045Z,0
2017-11-01T17:31:10.321Z,0
2017-11-01T17:32:32.521Z,0
2017-11-01T17:33:54.741Z,0
2017-11-01T17:35:16.612Z,0
2017-11-01T17:36:38.827Z,0
2017-11-01T17:38:01.402Z,0
2017-11-01T17:39:23.755Z,0
2017-11-01T17:40:45.997Z,0
2017-11-01T17:42:08.517Z,0
2017-11-01T17:43:31.064Z,0
2017-11-01T17:44:53.585Z,0
2017-11-01T17:46:15.801Z,0
2017-11-01T17:47:38.485Z,0
2017-11-01T17:49:00.720Z,0
2017-11-01T17:50:22.674Z,0
2017-11-01T17:51:45.227Z,0
2017-11-01T17:53:07.774Z,0
2017-11-01T17:54:30.305Z,0
2017-11-01T17:55:52.846Z,0
2017-11-01T17:57:15.415Z,0
2017-11-01T17:58:37.308Z,0
2017-11-01T17:59:59.868Z,0
2017-11-01T18:01:22.418Z,0
2017-11-01T18:02:44.946Z,0
2017-11-01T18:04:07.155Z,0
2017-11-01T18:05:29.738Z,0
2017-11-01T18:06:52.284Z,0
2017-11-01T18:08:14.807Z,0
2017-11-01T18:09:37.395Z,0
2017-11-01T18:10:59.948Z,0
2017-11-01T18:12:21.802Z,0
2017-11-01T18:13:44.469Z,0
2017-11-01T18:15:07.011Z,0
2017-11-01T18:16:29.025Z,0
2017-11-01T18:17:51.594Z,0
2017-11-01T18:19:14.125Z,0
2017-11-01T18:20:36.001Z,0
2017-11-01T18:21:58.514Z,0
2017-11-01T18:23:20.062Z,0
2017-11-01T18:24:42.633Z,0
2017-11-01T18:26:04.820Z,0
2017-11-01T18:27:27.062Z,0
2017-11-01T18:28:49.713Z,0
2017-11-01T18:30:11.933Z,0
2017-11-01T18:31:33.803Z,0
2017-11-01T18:32:56.377Z,0
2017-11-01T18:34:18.800Z,0
2017-11-01T18:35:41.353Z,0
2017-11-01T18:37:03.912Z,0
2017-11-01T18:38:26.437Z,0
2017-11-01T18:39:48.655Z,0
2017-11-01T18:41:10.563Z,0
2017-11-01T18:42:33.104Z,0
2017-11-01T18:43:55.075Z,0
2017-11-01T18:45:17.624Z,0
2017-11-01T18:46:39.865Z,0
2017-11-01T18:48:02.434Z,0
2017-11-01T18:49:24.684Z,0
2017-11-01T18:50:47.243Z,0
2017-11-01T18:52:09.473Z,0
2017-11-01T18:53:31.654Z,0
2017-11-01T18:54:54.030Z,0
2017-11-01T18:56:16.526Z,0
2017-11-01T18:57:38.747Z,0
2017-11-01T18:59:01.316Z,0
2017-11-01T19:00:23.585Z,0
2017-11-01T19:01:45.785Z,0
2017-11-01T19:03:08.047Z,0
2017-11-01T19:04:29.921Z,0
2017-11-01T19:05:52.463Z,0
2017-11-01T19:07:14.388Z,0
2017-11-01T19:08:37.727Z,0
2017-11-01T19:10:00.307Z,0
2017-11-01T19:11:22.235Z,0
2017-11-01T19:12:45.011Z,0
2017-11-01T19:14:07.337Z,0
2017-11-01T19:15:29.907Z,0
2017-11-01T19:16:51.817Z,0
2017-11-01T19:18:14.015Z,0
2017-11-01T19:19:36.225Z,0
2017-11-01T19:20:58.776Z,0
2017-11-01T19:22:21.065Z,0
2017-11-01T19:23:42.998Z,0
2017-11-01T19:25:05.234Z,0
2017-11-01T19:26:27.756Z,0
2017-11-01T19:27:50.032Z,0
2017-11-01T19:29:11.993Z,0
2017-11-01T19:30:34.567Z,0
2017-11-01T19:31:56.460Z,0
2017-11-01T19:33:18.665Z,0
2017-11-01T19:34:41.485Z,0
2017-11-01T19:36:03.697Z,0
2017-11-01T19:37:26.253Z,0
2017-11-01T19:38:48.155Z,0
2017-11-01T19:40:10.362Z,0
2017-11-01T19:41:33.316Z,0
2017-11-01T19:42:55.887Z,0
2017-11-01T19:44:18.103Z,0
2017-11-01T19:45:40.642Z,0
2017-11-01T19:47:03.221Z,0
2017-11-01T19:48:25.471Z,0
2017-11-01T19:49:47.786Z,0
2017-11-01T19:51:10.385Z,0